PHX weather

Phoenix Sky Harbor International Airport
Phoenix, Arizona, United States

Public forecast

Using degrees Fahrenheit for public forecast. Weather courtesy of forecast.io.

METAR (pilot weather report)

Retrieved 2019/02/18 17:51 UTC (53 minutes ago):

KPHX 181751Z 28004KT 10SM SCT035 BKN055 BKN090 09/04 A2998 RMK AO2 SLP148 60003 T00940039 10094 20067 51012 $

TAF (pilot weather forecast)

Retrieved 2019/02/18 18:39 UTC (5 minutes ago):

TAF KPHX 181737Z 1818/1924 28008KT P6SM VCSH FEW050 BKN070 FM190300 32004KT P6SM FEW050 BKN110 FM191400 08004KT P6SM FEW040 FM192000 26008KT P6SM FEW080